Portada
METAR-TAF:

METAR-TAF

Aeroports :

Guilin, Xina

latitud: 25-20N, longitud: 110-18E, altitud: 166 m

Observació

L'informe es va fer fa 29 minuts, a les 20:00 UTC
Vent 2 kt del Sud
Temperatura 24°C
Humitat 94%
Pressió 1013 hPa
Visibilitat 10 km o més
sense núvols per sota de 1500 mi sense presència de cumulonimbus.

METAR: ZGKL 242000Z 19001MPS CAVOK 24/23 Q1013 NOSIG

Hora: 04:29 (20:29 UTC)

Pronòstic

L'informe es va fer fa 5 hores i 24 minuts, a les 15:05 UTC
Pronòstic vàlid del 24 a les 18 UTC al 25 a les 18 UTC
Vent 6 kt del Sud
Visibilitat: 5000 m
Escasses núvols a una alçada de 3000 ft
Núvols disperses a una alçada de 6000 ft
boirina
Temporalment
l' 25 a les 06 UTC al 25 a les 12 UTC
Escasses núvols a una alçada de 3000 ft, Cumulonimbus.
Núvols disperses a una alçada de 5000 ft

TAF: ZGKL 241505Z 2418/2518 18003MPS 5000 BR FEW030 SCT060 TX35/2508Z TN23/2422Z TEMPO 2506/2512 FEW030CB SCT050

Observacions i pronòstics meteorològics de més de 4000 aeroports (METAR i TAF).

Les estacions disponibles són els punts grocs i vermells al mapa.

Posi el ratolí al punt desitjat per veure el nom de l'estació.

Feu clic per veure les observacions i els pronòstics meteorològics.

Per canviar el mapa: feu clic els botons verds amb una creu de color negre per apropar; al botó verd amb un guió per allunyar la imatge; o en les fletxes verdes per a mapes adjacents.


METAR-TAF: